Time;durP1;ratioP1;P1;durP2;ratioP2;P2;SDS_P1;SDS_P2;PMS_P1;PMS_P2;Temp;Humidity;BMP_temperature;BMP_pressure;BME280_temperature;BME280_humidity;BME280_pressure;Samples;Min_cycle;Max_cycle;Signal;HPM_P1;HPM_P2
2023/08/14 00:01:12;;;;;;;3.97;3.03;;;24.40;90.50;;;;;;4967744;28;20671;-72
2023/08/14 00:03:41;;;;;;;3.83;3.50;;;24.40;90.40;;;;;;4983470;28;20197;-73
2023/08/14 00:06:07;;;;;;;4.50;3.10;;;24.40;90.40;;;;;;4993978;28;20906;-72
2023/08/14 00:08:33;;;;;;;4.60;3.07;;;24.40;90.40;;;;;;4999133;28;20436;-72
2023/08/14 00:10:59;;;;;;;4.40;2.73;;;24.40;90.40;;;;;;4984221;28;20531;-73
2023/08/14 00:13:29;;;;;;;3.60;3.30;;;24.40;90.40;;;;;;4967680;28;20573;-72
2023/08/14 00:15:55;;;;;;;4.83;2.80;;;24.30;90.40;;;;;;4959581;28;20219;-72
2023/08/14 00:18:21;;;;;;;5.13;3.63;;;24.30;90.40;;;;;;4998909;28;20468;-72
2023/08/14 00:20:47;;;;;;;5.10;3.20;;;24.30;90.40;;;;;;4967023;28;20765;-72
2023/08/14 00:23:13;;;;;;;4.93;2.97;;;24.30;90.40;;;;;;4983262;28;20456;-72
2023/08/14 00:25:44;;;;;;;4.60;2.87;;;24.20;90.40;;;;;;4989591;28;20440;-73
2023/08/14 00:28:17;;;;;;;6.10;3.03;;;24.20;90.30;;;;;;4983471;28;20445;-73
2023/08/14 00:30:45;;;;;;;4.63;3.07;;;24.20;90.30;;;;;;4982497;28;20892;-72
2023/08/14 00:33:11;;;;;;;6.93;3.20;;;24.20;90.40;;;;;;4983995;28;20495;-72
2023/08/14 00:35:37;;;;;;;3.67;3.10;;;24.20;90.40;;;;;;4988094;28;20432;-72
2023/08/14 00:38:03;;;;;;;4.40;3.03;;;24.20;90.40;;;;;;4985034;28;20631;-72
2023/08/14 00:40:29;;;;;;;5.03;3.27;;;24.20;90.40;;;;;;4967263;28;20813;-72
2023/08/14 00:42:55;;;;;;;4.83;3.33;;;24.20;90.40;;;;;;4967144;28;20531;-72
2023/08/14 00:45:21;;;;;;;3.17;2.87;;;24.20;90.40;;;;;;4985784;28;20943;-73
2023/08/14 00:47:49;;;;;;;3.63;3.30;;;24.20;90.40;;;;;;5002586;28;20200;-72
2023/08/14 00:50:18;;;;;;;8.80;2.87;;;24.10;90.30;;;;;;4967037;28;20429;-72
2023/08/14 00:52:47;;;;;;;3.20;3.00;;;24.10;90.30;;;;;;4982772;28;21159;-72
2023/08/14 00:55:21;;;;;;;3.40;2.63;;;24.10;90.30;;;;;;4984979;28;21008;-72
2023/08/14 00:57:51;;;;;;;4.47;3.10;;;24.10;90.30;;;;;;4985662;28;20540;-72
2023/08/14 01:00:17;;;;;;;4.47;3.17;;;24.10;90.30;;;;;;5001638;28;20460;-72
2023/08/14 01:02:47;;;;;;;4.23;3.40;;;24.10;90.20;;;;;;5001800;28;20443;-72
2023/08/14 01:05:13;;;;;;;5.50;3.50;;;24.00;90.20;;;;;;4984196;28;20526;-72
2023/08/14 01:07:41;;;;;;;5.97;3.60;;;24.00;90.20;;;;;;4981999;28;20437;-73
2023/08/14 01:10:10;;;;;;;5.13;2.97;;;24.00;90.10;;;;;;4967743;28;20815;-72
2023/08/14 01:12:47;;;;;;;3.40;3.10;;;24.00;90.20;;;;;;4965969;28;20899;-72
2023/08/14 01:15:23;;;;;;;5.40;3.30;;;24.00;90.20;;;;;;4983388;28;20472;-72
2023/08/14 01:17:58;;;;;;;3.33;3.10;;;24.00;90.20;;;;;;5002358;28;20531;-72
2023/08/14 01:20:29;;;;;;;3.60;3.30;;;23.90;90.10;;;;;;4983569;28;20539;-72
2023/08/14 01:23:12;;;;;;;4.97;3.10;;;23.90;90.20;;;;;;4982852;28;21077;-72
2023/08/14 01:25:39;;;;;;;4.30;3.20;;;23.90;90.10;;;;;;4988181;28;20463;-71
2023/08/14 01:28:09;;;;;;;3.40;3.10;;;23.90;90.10;;;;;;4985080;28;20471;-72
2023/08/14 01:30:35;;;;;;;4.63;3.27;;;23.90;90.10;;;;;;4982746;28;20429;-72
2023/08/14 01:33:04;;;;;;;4.30;3.47;;;23.90;90.10;;;;;;4951558;28;20453;-72
2023/08/14 01:35:45;;;;;;;3.43;2.80;;;23.90;90.10;;;;;;4986195;28;20433;-73
2023/08/14 01:38:20;;;;;;;3.30;3.00;;;23.80;90.00;;;;;;4970517;28;20456;-73
2023/08/14 01:41:07;;;;;;;3.53;3.23;;;23.80;90.10;;;;;;4987090;28;20471;-72
2023/08/14 01:43:38;;;;;;;3.37;2.77;;;23.80;90.00;;;;;;4987047;28;20964;-72
2023/08/14 01:46:14;;;;;;;4.70;3.10;;;23.80;90.10;;;;;;4994838;28;20538;-72
2023/08/14 01:48:43;;;;;;;4.17;3.10;;;23.80;90.10;;;;;;5005923;28;20427;-73
2023/08/14 01:51:14;;;;;;;6.27;3.60;;;23.80;90.10;;;;;;4990760;28;20539;-72
2023/08/14 01:53:46;;;;;;;7.47;3.53;;;23.70;90.00;;;;;;5006768;28;20409;-72
2023/08/14 01:56:19;;;;;;;3.47;3.07;;;23.70;90.00;;;;;;5009299;28;21010;-73
2023/08/14 01:58:45;;;;;;;3.97;3.10;;;23.70;90.00;;;;;;4985502;28;20835;-73
2023/08/14 02:01:11;;;;;;;4.37;3.13;;;23.70;90.00;;;;;;4988187;28;20445;-73
2023/08/14 02:03:39;;;;;;;4.97;2.90;;;23.70;90.00;;;;;;4986757;28;20499;-73
2023/08/14 02:06:05;;;;;;;9.33;3.27;;;23.70;90.00;;;;;;4977379;28;20419;-72
2023/08/14 02:08:34;;;;;;;5.63;3.47;;;23.70;90.00;;;;;;5003074;28;20567;-72
2023/08/14 02:11:09;;;;;;;5.20;3.47;;;23.70;90.00;;;;;;4988196;28;20544;-73
2023/08/14 02:13:36;;;;;;;5.97;3.70;;;23.60;90.00;;;;;;4986858;28;20820;-73
2023/08/14 02:16:03;;;;;;;3.57;3.23;;;23.60;90.00;;;;;;4992825;28;20455;-72
2023/08/14 02:18:33;;;;;;;4.00;3.43;;;23.60;90.00;;;;;;4989481;28;20523;-72
2023/08/14 02:21:00;;;;;;;3.20;3.00;;;23.60;90.00;;;;;;5007228;28;20459;-72
2023/08/14 02:23:26;;;;;;;4.00;3.60;;;23.60;90.00;;;;;;4973876;28;20527;-72
2023/08/14 02:25:55;;;;;;;4.10;3.50;;;23.60;90.00;;;;;;4984749;28;20922;-73
2023/08/14 02:28:22;;;;;;;3.60;3.30;;;23.50;89.90;;;;;;4986531;28;20516;-73
2023/08/14 02:30:51;;;;;;;3.47;3.23;;;23.50;89.90;;;;;;4970303;28;20503;-73
2023/08/14 02:33:17;;;;;;;4.10;3.67;;;23.50;89.90;;;;;;4987038;28;20910;-72
2023/08/14 02:35:43;;;;;;;3.87;3.30;;;23.50;90.00;;;;;;4972955;28;20433;-72
2023/08/14 02:38:09;;;;;;;10.03;3.40;;;23.50;89.90;;;;;;5005048;28;20198;-72
2023/08/14 02:40:39;;;;;;;3.40;3.10;;;23.50;90.00;;;;;;5005361;28;20856;-73
2023/08/14 02:43:05;;;;;;;3.37;3.07;;;23.50;90.00;;;;;;5005258;28;20405;-72
2023/08/14 02:45:34;;;;;;;6.10;3.60;;;23.50;90.00;;;;;;4987359;28;20441;-72
2023/08/14 02:48:00;;;;;;;4.37;3.40;;;23.40;89.90;;;;;;5006821;28;20419;-72
2023/08/14 02:50:28;;;;;;;3.67;3.37;;;23.40;89.90;;;;;;4972573;28;20491;-73
2023/08/14 02:52:54;;;;;;;4.00;3.60;;;23.40;90.00;;;;;;4972735;28;20536;-73
2023/08/14 02:55:22;;;;;;;4.00;3.43;;;23.40;90.00;;;;;;4969143;28;20473;-72
2023/08/14 02:57:51;;;;;;;3.63;3.10;;;23.40;90.00;;;;;;4953793;28;20457;-72
2023/08/14 03:00:20;;;;;;;4.10;3.53;;;23.40;90.00;;;;;;4987489;28;20795;-72
2023/08/14 03:02:48;;;;;;;3.50;3.20;;;23.40;90.00;;;;;;4989674;28;20448;-73
2023/08/14 03:05:14;;;;;;;3.87;3.47;;;23.40;90.00;;;;;;4970076;28;20433;-72
2023/08/14 03:07:43;;;;;;;3.60;3.20;;;23.30;89.90;;;;;;4985732;28;20405;-72
2023/08/14 03:10:09;;;;;;;3.20;2.93;;;23.30;89.90;;;;;;4985518;28;20429;-72
2023/08/14 03:12:37;;;;;;;5.43;3.50;;;23.30;89.90;;;;;;4970316;28;20459;-72
2023/08/14 03:15:05;;;;;;;6.77;3.50;;;23.30;89.90;;;;;;4971041;28;20584;-72
2023/08/14 03:17:35;;;;;;;6.60;3.10;;;23.30;89.90;;;;;;4975864;28;20465;-73
2023/08/14 03:20:05;;;;;;;3.50;3.20;;;23.30;90.00;;;;;;4985574;28;20417;-72
2023/08/14 03:22:33;;;;;;;4.73;3.47;;;23.30;89.90;;;;;;4969619;28;20441;-72
2023/08/14 03:25:01;;;;;;;3.30;3.00;;;23.20;89.90;;;;;;4987590;28;20411;-72
2023/08/14 03:27:28;;;;;;;4.20;3.37;;;23.20;89.90;;;;;;4967127;28;20465;-72
2023/08/14 03:29:54;;;;;;;4.30;3.63;;;23.20;89.90;;;;;;4985236;28;20421;-73
2023/08/14 03:32:20;;;;;;;4.10;3.27;;;23.20;89.90;;;;;;4985303;28;20815;-73
2023/08/14 03:34:48;;;;;;;3.57;2.87;;;23.20;89.80;;;;;;4986741;28;21117;-72
2023/08/14 03:37:16;;;;;;;3.90;3.50;;;23.20;89.90;;;;;;4973529;28;20472;-72
2023/08/14 03:39:46;;;;;;;4.03;3.63;;;23.20;89.90;;;;;;4968539;28;20461;-72
2023/08/14 03:42:12;;;;;;;3.50;2.90;;;23.10;89.80;;;;;;4986355;28;20972;-73
2023/08/14 03:44:40;;;;;;;4.80;3.53;;;23.10;89.70;;;;;;4989064;28;20166;-72
2023/08/14 03:47:06;;;;;;;5.07;3.73;;;23.10;89.70;;;;;;4987862;28;20401;-72
2023/08/14 03:49:32;;;;;;;5.63;3.30;;;23.10;89.70;;;;;;5003294;28;20165;-73
2023/08/14 03:51:58;;;;;;;5.47;3.27;;;23.10;89.80;;;;;;5002817;28;20501;-72
2023/08/14 03:54:24;;;;;;;4.67;3.60;;;23.10;89.80;;;;;;5003020;28;20208;-73
2023/08/14 03:56:50;;;;;;;4.10;3.43;;;23.10;89.80;;;;;;4987191;28;21081;-72
2023/08/14 03:59:16;;;;;;;5.83;3.20;;;23.10;89.80;;;;;;5004731;28;20413;-73
2023/08/14 04:01:43;;;;;;;6.80;3.60;;;23.00;89.70;;;;;;5003661;28;20201;-72
2023/08/14 04:04:11;;;;;;;4.60;3.50;;;23.00;89.80;;;;;;4987135;28;20445;-72
2023/08/14 04:06:39;;;;;;;4.73;3.70;;;23.00;89.80;;;;;;5003259;28;20432;-72
2023/08/14 04:09:06;;;;;;;3.77;3.20;;;23.00;89.80;;;;;;5003613;28;20535;-72
2023/08/14 04:11:32;;;;;;;5.50;3.57;;;23.00;89.80;;;;;;5004021;28;20470;-73
2023/08/14 04:13:59;;;;;;;4.10;3.80;;;23.00;89.90;;;;;;4987049;28;21035;-72
2023/08/14 04:16:41;;;;;;;7.70;3.27;;;23.00;89.90;;;;;;5002723;28;20408;-72
2023/08/14 04:19:18;;;;;;;5.23;3.33;;;23.00;89.80;;;;;;4986766;28;20531;-75
2023/08/14 04:21:47;;;;;;;3.80;3.50;;;22.90;89.80;;;;;;5018930;28;20439;-76
2023/08/14 04:24:15;;;;;;;4.10;3.70;;;22.90;89.70;;;;;;4986626;28;20496;-75
2023/08/14 04:26:43;;;;;;;4.00;3.50;;;22.90;89.70;;;;;;4986837;28;20483;-75
2023/08/14 04:29:11;;;;;;;5.07;3.83;;;22.90;89.80;;;;;;4987131;28;20450;-75
2023/08/14 04:31:40;;;;;;;3.70;3.40;;;22.90;89.70;;;;;;5003419;28;20436;-75
2023/08/14 04:34:08;;;;;;;5.33;4.13;;;22.90;89.80;;;;;;5002854;28;20412;-75
2023/08/14 04:36:36;;;;;;;4.37;3.97;;;22.90;89.70;;;;;;4990072;28;20479;-75
2023/08/14 04:39:04;;;;;;;4.20;3.50;;;22.80;89.60;;;;;;5022362;28;20439;-75
2023/08/14 04:41:30;;;;;;;4.40;3.80;;;22.80;89.60;;;;;;5006028;28;20455;-75
2023/08/14 04:44:01;;;;;;;4.20;3.83;;;22.80;89.60;;;;;;5022545;28;20509;-74
2023/08/14 04:46:32;;;;;;;4.97;4.00;;;22.80;89.60;;;;;;5006613;28;20451;-75
2023/08/14 04:49:03;;;;;;;4.10;3.70;;;22.80;89.60;;;;;;4991241;28;20431;-75
2023/08/14 04:51:30;;;;;;;3.73;3.27;;;22.80;89.70;;;;;;5007803;28;20533;-75
2023/08/14 04:53:59;;;;;;;4.30;3.30;;;22.70;89.60;;;;;;4991478;28;20458;-75
2023/08/14 04:56:27;;;;;;;6.00;3.60;;;22.70;89.60;;;;;;5008017;28;20395;-75
2023/08/14 04:58:54;;;;;;;4.33;3.63;;;22.70;89.50;;;;;;5024950;28;20435;-75
2023/08/14 05:01:27;;;;;;;5.20;3.70;;;22.70;89.60;;;;;;5008163;28;20454;-74
2023/08/14 05:03:56;;;;;;;4.80;4.13;;;22.70;89.70;;;;;;5006944;28;20416;-75
2023/08/14 05:06:26;;;;;;;4.60;3.27;;;22.70;89.70;;;;;;5020000;28;20419;-75
2023/08/14 05:08:53;;;;;;;4.53;3.60;;;22.70;89.70;;;;;;4986547;28;20428;-74
2023/08/14 05:11:19;;;;;;;6.83;4.00;;;22.60;89.60;;;;;;4969780;28;20451;-75
2023/08/14 05:13:46;;;;;;;5.97;3.93;;;22.60;89.60;;;;;;4986575;28;20435;-75
2023/08/14 05:16:14;;;;;;;4.30;4.00;;;22.60;89.70;;;;;;4987541;28;20928;-75
2023/08/14 05:18:40;;;;;;;5.00;4.13;;;22.60;89.70;;;;;;4987011;28;20485;-76
2023/08/14 05:21:08;;;;;;;4.93;4.00;;;22.60;89.70;;;;;;4971543;28;20515;-75
2023/08/14 05:23:37;;;;;;;4.93;3.80;;;22.60;89.80;;;;;;4970429;28;20441;-75
2023/08/14 05:26:03;;;;;;;5.00;4.17;;;22.60;89.80;;;;;;5014126;28;20463;-74
2023/08/14 05:28:32;;;;;;;4.63;4.20;;;22.60;89.90;;;;;;5022473;28;20400;-73
2023/08/14 05:31:00;;;;;;;4.80;4.40;;;22.60;89.90;;;;;;5022728;28;20549;-75
2023/08/14 05:33:30;;;;;;;4.50;4.10;;;22.60;90.00;;;;;;5005821;28;20435;-75
2023/08/14 05:35:59;;;;;;;4.53;4.10;;;22.50;90.00;;;;;;5023537;28;20423;-75
2023/08/14 05:38:25;;;;;;;3.70;3.50;;;22.60;90.00;;;;;;5023491;28;20505;-75
2023/08/14 05:40:53;;;;;;;4.23;3.73;;;22.50;90.00;;;;;;5021314;28;20994;-75
2023/08/14 05:43:19;;;;;;;5.33;3.63;;;22.50;90.00;;;;;;5021749;28;20172;-75
2023/08/14 05:45:46;;;;;;;4.80;3.90;;;22.50;90.10;;;;;;5022955;28;20418;-75
2023/08/14 05:48:16;;;;;;;4.40;3.60;;;22.50;90.10;;;;;;5021462;28;20792;-73
2023/08/14 05:50:42;;;;;;;3.63;3.33;;;22.50;90.10;;;;;;5021657;28;20414;-74
2023/08/14 05:53:11;;;;;;;4.60;3.83;;;22.50;90.10;;;;;;5022138;28;20876;-73
2023/08/14 05:55:39;;;;;;;7.37;4.13;;;22.50;90.20;;;;;;5005746;28;20550;-74
2023/08/14 05:58:06;;;;;;;4.23;3.83;;;22.50;90.20;;;;;;5023030;28;20465;-74
2023/08/14 06:00:32;;;;;;;6.40;4.00;;;22.50;90.20;;;;;;5021792;28;20415;-74
2023/08/14 06:02:58;;;;;;;4.70;4.30;;;22.50;90.30;;;;;;5005572;28;20438;-74
2023/08/14 06:05:25;;;;;;;4.40;4.10;;;22.50;90.40;;;;;;5021747;28;20825;-74
2023/08/14 06:07:52;;;;;;;4.07;3.67;;;22.50;90.40;;;;;;4991488;28;20901;-74
2023/08/14 06:10:18;;;;;;;4.20;3.90;;;22.50;90.50;;;;;;5003704;28;20414;-73
2023/08/14 06:12:49;;;;;;;3.80;3.50;;;22.50;90.50;;;;;;5003441;28;21266;-74
2023/08/14 06:15:16;;;;;;;4.30;3.27;;;22.50;90.60;;;;;;5002364;28;20548;-74
2023/08/14 06:17:44;;;;;;;3.83;3.53;;;22.40;90.60;;;;;;5018823;28;20460;-74
2023/08/14 06:20:13;;;;;;;5.10;4.10;;;22.40;90.70;;;;;;4986249;28;20918;-74
2023/08/14 06:22:46;;;;;;;3.90;3.60;;;22.50;90.80;;;;;;5002190;28;20444;-74
2023/08/14 06:25:19;;;;;;;10.13;4.23;;;22.40;90.80;;;;;;5004500;28;20451;-74
2023/08/14 06:27:47;;;;;;;7.23;3.67;;;22.40;90.80;;;;;;5006409;28;20412;-74
2023/08/14 06:30:15;;;;;;;4.60;3.70;;;22.40;90.80;;;;;;5005319;28;20461;-74
2023/08/14 06:32:42;;;;;;;4.10;3.70;;;22.40;90.80;;;;;;5004758;28;20450;-73
2023/08/14 06:35:09;;;;;;;4.57;3.80;;;22.40;90.80;;;;;;4988604;28;20921;-73
2023/08/14 06:37:35;;;;;;;6.80;3.70;;;22.40;90.90;;;;;;5004398;28;20908;-73
2023/08/14 06:40:04;;;;;;;4.27;3.63;;;22.40;90.90;;;;;;5020432;28;20443;-73
2023/08/14 06:42:30;;;;;;;5.10;4.63;;;22.40;90.90;;;;;;4988092;28;20452;-73
2023/08/14 06:44:59;;;;;;;3.47;3.17;;;22.40;90.90;;;;;;5004089;28;20411;-73
2023/08/14 06:47:25;;;;;;;4.53;3.77;;;22.40;90.90;;;;;;5004740;28;20513;-73
2023/08/14 06:49:51;;;;;;;4.47;3.23;;;22.40;91.00;;;;;;5006643;28;21129;-73
2023/08/14 06:52:17;;;;;;;4.60;4.30;;;22.40;90.90;;;;;;5006209;28;20606;-73
2023/08/14 06:54:45;;;;;;;4.33;3.93;;;22.40;90.90;;;;;;4988529;28;20390;-73
2023/08/14 06:57:11;;;;;;;4.27;3.87;;;22.40;90.90;;;;;;5006246;28;20553;-73
2023/08/14 06:59:37;;;;;;;4.70;4.00;;;22.40;90.90;;;;;;4971644;28;20464;-73
2023/08/14 07:02:03;;;;;;;3.80;3.50;;;22.40;90.90;;;;;;5004310;28;20604;-73
2023/08/14 07:04:29;;;;;;;4.30;3.67;;;22.40;90.90;;;;;;4987723;28;20471;-73
2023/08/14 07:06:56;;;;;;;4.03;3.60;;;22.40;90.90;;;;;;5004169;28;20463;-73
2023/08/14 07:09:26;;;;;;;4.10;3.70;;;22.40;90.90;;;;;;5004095;28;20412;-73
2023/08/14 07:11:52;;;;;;;4.30;3.83;;;22.40;91.00;;;;;;5005816;28;21108;-73
2023/08/14 07:14:18;;;;;;;4.73;3.47;;;22.40;91.00;;;;;;5003613;28;21165;-73
2023/08/14 07:16:44;;;;;;;4.80;4.27;;;22.40;91.00;;;;;;5003592;28;20452;-73
2023/08/14 07:19:10;;;;;;;3.90;3.60;;;22.40;91.00;;;;;;5020200;28;20241;-73
2023/08/14 07:21:43;;;;;;;3.83;3.47;;;22.40;91.00;;;;;;5003995;28;20509;-73
2023/08/14 07:24:12;;;;;;;3.93;3.63;;;22.50;91.00;;;;;;5003166;28;20431;-74
2023/08/14 07:26:40;;;;;;;5.60;4.10;;;22.50;91.00;;;;;;5003241;28;20450;-73
2023/08/14 07:29:06;;;;;;;4.60;3.20;;;22.50;91.00;;;;;;5003449;28;20503;-73
2023/08/14 07:31:33;;;;;;;3.57;3.37;;;22.50;91.00;;;;;;5003534;28;20800;-74
2023/08/14 07:33:59;;;;;;;3.83;3.40;;;22.50;91.00;;;;;;5003318;28;20456;-73
2023/08/14 07:36:26;;;;;;;4.67;3.53;;;22.50;91.10;;;;;;5004764;28;21125;-73
2023/08/14 07:38:52;;;;;;;3.70;3.40;;;22.50;91.10;;;;;;5003578;28;20829;-73
2023/08/14 07:41:20;;;;;;;4.60;4.10;;;22.50;91.20;;;;;;5003723;28;20538;-75
2023/08/14 07:43:49;;;;;;;4.33;3.70;;;22.50;91.20;;;;;;5021237;28;20425;-73
2023/08/14 07:46:20;;;;;;;4.07;3.70;;;22.50;91.10;;;;;;5004024;28;20506;-75
2023/08/14 07:48:48;;;;;;;4.10;3.70;;;22.50;91.10;;;;;;5073884;23;20519;-70
2023/08/14 07:51:16;;;;;;;4.30;4.00;;;22.50;91.10;;;;;;4993049;28;20455;-70
2023/08/14 07:53:43;;;;;;;4.07;3.70;;;22.50;91.20;;;;;;5004289;28;20828;-70
2023/08/14 07:56:08;;;;;;;4.23;3.50;;;22.50;91.10;;;;;;5004204;28;20845;-70
2023/08/14 07:58:39;;;;;;;5.50;4.07;;;22.50;91.10;;;;;;5004964;28;20448;-71
2023/08/14 08:01:06;;;;;;;3.90;3.60;;;22.50;91.30;;;;;;5003530;28;21208;-70
2023/08/14 08:03:34;;;;;;;4.00;3.60;;;22.50;91.30;;;;;;5003452;28;20475;-70
2023/08/14 08:06:03;;;;;;;3.50;3.20;;;22.50;91.40;;;;;;5004482;28;20431;-70
2023/08/14 08:08:29;;;;;;;4.67;4.27;;;22.50;91.30;;;;;;5019057;28;20444;-70
2023/08/14 08:10:59;;;;;;;4.57;3.90;;;22.50;91.40;;;;;;5019702;28;20465;-70
2023/08/14 08:13:32;;;;;;;3.80;3.50;;;22.50;91.40;;;;;;4971372;28;20990;-70
2023/08/14 08:16:00;;;;;;;9.13;3.97;;;22.50;91.40;;;;;;5004119;28;20416;-70
2023/08/14 08:18:29;;;;;;;4.33;4.00;;;22.50;91.40;;;;;;5002578;28;21098;-70
2023/08/14 08:20:57;;;;;;;4.17;3.83;;;22.50;91.30;;;;;;5003113;28;20486;-70
2023/08/14 08:23:26;;;;;;;3.90;3.60;;;22.50;91.40;;;;;;4986605;28;21017;-70
2023/08/14 08:25:56;;;;;;;4.17;3.87;;;22.50;91.40;;;;;;5019004;28;20663;-71
2023/08/14 08:28:25;;;;;;;3.50;3.20;;;22.50;91.60;;;;;;5003122;28;21205;-71
2023/08/14 08:30:53;;;;;;;4.10;3.70;;;22.50;91.60;;;;;;5002879;28;20452;-77
2023/08/14 08:33:22;;;;;;;4.33;3.93;;;22.50;91.70;;;;;;5003350;28;20515;-71
2023/08/14 08:35:48;;;;;;;4.43;4.03;;;22.50;91.60;;;;;;5004753;28;20428;-71
2023/08/14 08:38:18;;;;;;;4.00;3.70;;;22.50;91.70;;;;;;5021129;28;20480;-71
2023/08/14 08:40:48;;;;;;;3.80;3.50;;;22.50;91.60;;;;;;5024512;28;20408;-71
2023/08/14 08:43:15;;;;;;;4.07;3.67;;;22.60;91.70;;;;;;5024693;28;20847;-71
2023/08/14 08:45:49;;;;;;;4.53;3.53;;;22.60;91.60;;;;;;5005857;28;20467;-71
2023/08/14 08:48:21;;;;;;;6.50;3.60;;;22.60;91.60;;;;;;5021486;28;20403;-71
2023/08/14 08:50:49;;;;;;;5.30;4.20;;;22.60;91.60;;;;;;5021367;28;20475;-71
2023/08/14 08:53:19;;;;;;;4.20;3.80;;;22.60;91.60;;;;;;5021864;28;21064;-71
2023/08/14 08:55:50;;;;;;;5.17;3.70;;;22.60;91.60;;;;;;5038644;28;20493;-71
2023/08/14 08:58:22;;;;;;;3.60;3.30;;;22.60;91.60;;;;;;5005635;28;20505;-71
2023/08/14 09:00:54;;;;;;;6.00;3.20;;;22.60;91.60;;;;;;5022103;28;20451;-71
2023/08/14 09:03:22;;;;;;;3.40;3.20;;;22.60;91.70;;;;;;5038070;28;20944;-71
2023/08/14 09:05:53;;;;;;;3.87;3.57;;;22.70;91.80;;;;;;5021912;28;20458;-71
2023/08/14 09:08:24;;;;;;;4.03;3.67;;;22.70;91.80;;;;;;5005648;28;20427;-71
2023/08/14 09:10:53;;;;;;;4.73;4.33;;;22.70;91.80;;;;;;5018414;28;20871;-71
2023/08/14 09:13:21;;;;;;;3.87;3.47;;;22.70;91.80;;;;;;5003803;28;20467;-71
2023/08/14 09:15:56;;;;;;;4.30;3.90;;;22.70;91.90;;;;;;5002248;28;20531;-71
2023/08/14 09:18:24;;;;;;;4.90;3.67;;;22.80;91.90;;;;;;5003771;28;20452;-72
2023/08/14 09:20:51;;;;;;;3.47;3.27;;;22.80;91.90;;;;;;5018513;28;20413;-71
2023/08/14 09:23:20;;;;;;;4.90;3.80;;;22.80;91.90;;;;;;5003609;28;20514;-72
2023/08/14 09:25:49;;;;;;;3.77;3.47;;;22.90;91.90;;;;;;5003253;28;20404;-72
2023/08/14 09:28:21;;;;;;;4.50;3.73;;;22.90;91.90;;;;;;5003633;28;20419;-72
2023/08/14 09:30:50;;;;;;;4.07;3.70;;;22.90;91.90;;;;;;5003327;28;20525;-72
2023/08/14 09:33:25;;;;;;;4.13;3.83;;;22.90;91.90;;;;;;5003275;28;20406;-71
2023/08/14 09:35:54;;;;;;;4.97;3.93;;;23.00;92.00;;;;;;5002765;28;20456;-72
2023/08/14 09:38:22;;;;;;;4.17;3.77;;;23.00;92.00;;;;;;5043291;28;20554;-72
2023/08/14 09:40:48;;;;;;;6.40;3.70;;;23.00;92.00;;;;;;5041883;28;20398;-71
2023/08/14 09:43:14;;;;;;;4.67;3.97;;;23.00;92.00;;;;;;5025313;28;20863;-72
2023/08/14 09:45:40;;;;;;;4.80;3.80;;;23.10;92.00;;;;;;5041251;28;21056;-71
2023/08/14 09:48:08;;;;;;;4.00;3.63;;;23.10;92.00;;;;;;5042433;28;20430;-71
2023/08/14 09:50:36;;;;;;;6.47;4.00;;;23.10;92.00;;;;;;5041524;28;20490;-71
2023/08/14 09:53:03;;;;;;;4.00;3.60;;;23.20;92.00;;;;;;5041017;28;20450;-71
2023/08/14 09:55:34;;;;;;;4.07;3.67;;;23.20;91.90;;;;;;5041337;28;20450;-71
2023/08/14 09:58:00;;;;;;;3.27;3.07;;;23.20;91.90;;;;;;5003180;28;20479;-71
2023/08/14 10:00:32;;;;;;;4.27;3.40;;;23.20;91.90;;;;;;5006868;28;20436;-72
2023/08/14 10:03:00;;;;;;;5.00;4.50;;;23.30;92.00;;;;;;5005603;28;20447;-71
2023/08/14 10:05:27;;;;;;;5.80;3.63;;;23.30;92.00;;;;;;5005731;28;20436;-71
2023/08/14 10:07:54;;;;;;;5.23;3.57;;;23.30;91.90;;;;;;5005298;28;20439;-71
2023/08/14 10:10:30;;;;;;;4.93;3.80;;;23.40;91.90;;;;;;5006595;28;20594;-71
2023/08/14 10:13:05;;;;;;;4.47;3.90;;;23.40;91.90;;;;;;5006107;28;20969;-71
2023/08/14 10:15:42;;;;;;;3.63;3.33;;;23.40;92.00;;;;;;5006887;28;20439;-71
2023/08/14 10:18:20;;;;;;;4.47;4.03;;;23.50;91.90;;;;;;5005430;28;20558;-71
2023/08/14 10:20:48;;;;;;;3.83;3.53;;;23.50;91.90;;;;;;5020858;28;20403;-71
2023/08/14 10:23:17;;;;;;;4.70;3.37;;;23.50;91.80;;;;;;5006884;28;20928;-71
2023/08/14 10:25:50;;;;;;;4.57;4.17;;;23.50;91.70;;;;;;5005000;28;20922;-71
2023/08/14 10:28:19;;;;;;;5.80;4.00;;;23.60;91.80;;;;;;5006128;28;20874;-71
2023/08/14 10:30:45;;;;;;;4.07;3.27;;;23.60;91.80;;;;;;5004950;28;20455;-71
2023/08/14 10:33:14;;;;;;;4.07;3.70;;;23.70;91.80;;;;;;5004846;28;20547;-71
2023/08/14 10:35:47;;;;;;;3.37;3.07;;;23.70;91.80;;;;;;5004623;28;20404;-71
2023/08/14 10:38:15;;;;;;;3.93;3.63;;;23.70;91.70;;;;;;5025362;28;21319;-71
2023/08/14 10:40:51;;;;;;;6.83;3.50;;;23.70;91.70;;;;;;5026008;28;20999;-71
2023/08/14 10:43:17;;;;;;;5.37;3.57;;;23.80;91.60;;;;;;5006839;28;20429;-71
2023/08/14 10:45:46;;;;;;;4.10;3.50;;;23.80;91.60;;;;;;5023878;28;20452;-71
2023/08/14 10:48:12;;;;;;;4.33;3.70;;;23.80;91.60;;;;;;5040694;28;20478;-71
2023/08/14 10:50:38;;;;;;;4.47;3.40;;;23.90;91.60;;;;;;5026094;28;20509;-71
2023/08/14 10:53:10;;;;;;;3.60;3.30;;;23.90;91.60;;;;;;5026030;28;20976;-71
2023/08/14 10:55:42;;;;;;;3.47;3.17;;;23.90;91.50;;;;;;5024306;28;20893;-71
2023/08/14 10:58:35;;;;;;;3.83;3.50;;;24.00;91.40;;;;;;5023624;28;21004;-71
2023/08/14 11:01:04;;;;;;;4.33;3.47;;;24.10;91.30;;;;;;5024042;28;20479;-71
2023/08/14 11:03:33;;;;;;;7.00;3.80;;;24.10;91.20;;;;;;5025786;28;20411;-71
2023/08/14 11:05:59;;;;;;;4.17;3.60;;;24.10;91.20;;;;;;5040450;28;20496;-71
2023/08/14 11:08:30;;;;;;;4.03;3.33;;;24.10;91.20;;;;;;5025442;28;20469;-71
2023/08/14 11:10:58;;;;;;;5.47;3.43;;;24.20;91.20;;;;;;5007122;28;20448;-71
2023/08/14 11:13:30;;;;;;;4.17;3.00;;;24.20;91.20;;;;;;5023618;28;20490;-71
2023/08/14 11:15:57;;;;;;;5.30;4.20;;;24.30;91.10;;;;;;5023528;28;20781;-71
2023/08/14 11:18:23;;;;;;;4.20;3.53;;;24.30;91.00;;;;;;5023836;28;20435;-71
2023/08/14 11:20:50;;;;;;;4.07;3.60;;;24.30;91.00;;;;;;5025089;28;21153;-71
2023/08/14 11:23:16;;;;;;;4.13;3.10;;;24.40;91.20;;;;;;5039984;28;20420;-71
2023/08/14 11:25:44;;;;;;;4.83;3.87;;;24.40;90.70;;;;;;5022255;28;20554;-71
2023/08/14 11:28:12;;;;;;;4.73;3.70;;;24.50;90.70;;;;;;5024929;28;20407;-72
2023/08/14 11:30:42;;;;;;;4.40;4.00;;;24.50;90.50;;;;;;5025128;28;20456;-71
2023/08/14 11:33:08;;;;;;;4.00;2.90;;;24.50;90.50;;;;;;5011977;28;21072;-71
2023/08/14 11:35:36;;;;;;;5.73;3.67;;;24.50;90.40;;;;;;5023224;28;20419;-71
2023/08/14 11:38:05;;;;;;;5.67;4.10;;;24.60;90.50;;;;;;5016100;28;20452;-71
2023/08/14 11:40:31;;;;;;;4.20;3.80;;;24.70;90.50;;;;;;4987318;28;20485;-71
2023/08/14 11:43:07;;;;;;;4.13;3.83;;;24.70;90.40;;;;;;4988200;28;21226;-72
2023/08/14 11:45:37;;;;;;;7.33;4.00;;;24.70;90.50;;;;;;5009929;28;20593;-71
2023/08/14 11:48:03;;;;;;;7.27;3.90;;;24.70;90.50;;;;;;5023289;28;20427;-71
2023/08/14 11:50:34;;;;;;;3.93;3.53;;;24.70;90.40;;;;;;5039273;28;20474;-71
2023/08/14 11:53:03;;;;;;;4.57;4.17;;;24.80;90.40;;;;;;5024649;28;20518;-71
2023/08/14 11:55:31;;;;;;;4.40;4.10;;;24.80;90.30;;;;;;5023508;28;20912;-71
2023/08/14 11:57:59;;;;;;;4.90;4.07;;;24.90;90.40;;;;;;5006756;28;20557;-71
2023/08/14 12:00:26;;;;;;;5.10;4.20;;;24.90;90.40;;;;;;5006784;28;20450;-71
2023/08/14 12:02:53;;;;;;;3.50;3.30;;;24.90;90.40;;;;;;5024011;28;20440;-71
2023/08/14 12:05:20;;;;;;;4.57;4.17;;;25.00;90.40;;;;;;5023828;28;20415;-71
2023/08/14 12:07:48;;;;;;;4.57;3.77;;;25.00;90.40;;;;;;5022680;28;20976;-71
2023/08/14 12:10:15;;;;;;;8.80;4.00;;;25.10;90.30;;;;;;5023942;28;20419;-71
2023/08/14 12:12:42;;;;;;;5.60;4.10;;;25.10;90.40;;;;;;5038695;28;20805;-71
2023/08/14 12:15:10;;;;;;;6.17;4.23;;;25.10;90.30;;;;;;5022540;28;20442;-71
2023/08/14 12:17:37;;;;;;;5.50;3.73;;;25.10;90.30;;;;;;5022729;28;20455;-71
2023/08/14 12:20:10;;;;;;;11.00;4.60;;;25.20;90.30;;;;;;5022901;28;20570;-71
2023/08/14 12:22:41;;;;;;;4.40;4.00;;;25.20;90.30;;;;;;5023373;28;20443;-71
2023/08/14 12:25:08;;;;;;;11.00;4.87;;;25.30;90.30;;;;;;5024121;28;21012;-71
2023/08/14 12:27:37;;;;;;;6.83;4.40;;;25.20;90.30;;;;;;5023338;28;20450;-71
2023/08/14 12:30:06;;;;;;;13.47;4.47;;;25.30;90.30;;;;;;5024101;28;21174;-71
2023/08/14 12:32:32;;;;;;;7.27;3.80;;;25.30;90.20;;;;;;5024750;28;20446;-72
2023/08/14 12:35:00;;;;;;;10.27;4.63;;;25.40;90.30;;;;;;5024722;28;20419;-72
2023/08/14 12:37:28;;;;;;;8.37;4.60;;;25.40;90.20;;;;;;5023105;28;20497;-72
2023/08/14 12:39:55;;;;;;;5.30;4.33;;;25.40;90.10;;;;;;5023235;28;20415;-72
2023/08/14 12:42:24;;;;;;;4.67;3.80;;;25.40;90.10;;;;;;5006836;28;20446;-72
2023/08/14 12:44:55;;;;;;;5.57;4.30;;;25.50;90.10;;;;;;5024935;28;20456;-73
2023/08/14 12:47:24;;;;;;;5.20;4.17;;;25.50;90.10;;;;;;5040499;28;20474;-73
2023/08/14 12:49:55;;;;;;;4.67;4.20;;;25.50;90.10;;;;;;5023270;28;20447;-73
2023/08/14 12:52:21;;;;;;;7.63;4.70;;;25.60;90.10;;;;;;5006457;28;20445;-73